Terminal Aerodrome Forecast
Issued by NWS Wilmington, OH

Current Version | Previous Version | Graphics & Text | Print | Product List | Glossary On
Versions: 1 2 3 4 5 6 7 8 9 10 11 12 13 14 15 16 17 18 19 20 21
000
FTUS41 KILN 261100
TAFILN
TAF
KILN 261130Z 2612/2712 02010KT P6SM OVC060
     FM261500 02012KT P6SM OVC025
     FM261800 01012KT P6SM OVC022
     FM270200 35009KT P6SM SCT020 OVC035
     FM271000 35006KT P6SM SCT040=

USA.gov is the U.S. government's official web portal to all federal, state and local government web resources and services.